Time;durP1;ratioP1;P1;durP2;ratioP2;P2;SDS_P1;SDS_P2;PMS_P1;PMS_P2;Temp;Humidity;BMP_temperature;BMP_pressure;BME280_temperature;BME280_humidity;BME280_pressure;Samples;Min_cycle;Max_cycle;Signal;HPM_P1;HPM_P2
2023/10/24 04:06:57;;;;;;;0.30;0.30;;;12.80;99.90;;;;;;5017881;23;20508;-62
2023/10/24 04:09:23;;;;;;;0.40;0.40;;;12.70;99.90;;;;;;4978187;28;20426;-62
2023/10/24 04:11:48;;;;;;;0.30;0.30;;;12.70;99.90;;;;;;4978181;28;20175;-62
2023/10/24 04:14:14;;;;;;;0.30;0.30;;;12.70;99.90;;;;;;4977739;28;20206;-62
2023/10/24 04:16:40;;;;;;;0.60;0.53;;;12.60;99.90;;;;;;4978317;28;20674;-62
2023/10/24 04:19:06;;;;;;;0.63;0.50;;;12.60;99.90;;;;;;4977933;28;20493;-62
2023/10/24 04:21:32;;;;;;;0.40;0.40;;;12.60;99.90;;;;;;4977741;28;20736;-62
2023/10/24 04:23:58;;;;;;;0.30;0.20;;;12.60;99.90;;;;;;4977500;28;20418;-62
2023/10/24 04:26:24;;;;;;;0.30;0.30;;;12.50;99.90;;;;;;4977724;28;20199;-61
2023/10/24 04:28:49;;;;;;;0.30;0.30;;;12.50;99.90;;;;;;4977765;28;20493;-61
2023/10/24 04:31:15;;;;;;;0.30;0.30;;;12.50;99.90;;;;;;4977874;28;20601;-62
2023/10/24 04:33:41;;;;;;;0.30;0.30;;;12.60;99.90;;;;;;4977615;28;20180;-62
2023/10/24 04:36:10;;;;;;;0.40;0.40;;;12.60;99.90;;;;;;4976650;28;20195;-62
2023/10/24 04:38:36;;;;;;;0.30;0.30;;;12.60;99.90;;;;;;4977473;28;20644;-61
2023/10/24 04:41:02;;;;;;;0.30;0.30;;;12.60;99.90;;;;;;4977478;28;20544;-62
2023/10/24 04:43:27;;;;;;;0.40;0.40;;;12.60;99.90;;;;;;4977663;28;20418;-62
2023/10/24 04:45:53;;;;;;;0.50;0.50;;;12.60;99.90;;;;;;4977061;28;20178;-62
2023/10/24 04:48:18;;;;;;;0.30;0.30;;;12.50;99.90;;;;;;4977261;28;20222;-62
2023/10/24 04:50:44;;;;;;;0.30;0.30;;;12.50;99.90;;;;;;4977536;28;20645;-62
2023/10/24 04:53:10;;;;;;;0.50;0.50;;;12.50;99.90;;;;;;4977403;28;20746;-62
2023/10/24 04:55:35;;;;;;;0.30;0.30;;;12.50;99.90;;;;;;4975734;28;20274;-61
2023/10/24 04:58:02;;;;;;;0.30;0.30;;;12.50;99.90;;;;;;4977110;28;20241;-62
2023/10/24 05:00:28;;;;;;;0.30;0.30;;;12.40;99.90;;;;;;4977013;28;20213;-62
2023/10/24 05:02:53;;;;;;;0.93;0.93;;;12.40;99.90;;;;;;4977419;28;20468;-61
2023/10/24 05:05:19;;;;;;;0.30;0.30;;;12.40;99.90;;;;;;4976727;28;20178;-63
2023/10/24 05:07:45;;;;;;;0.30;0.30;;;12.40;99.90;;;;;;4976751;28;20209;-61
2023/10/24 05:10:10;;;;;;;0.30;0.20;;;12.40;99.90;;;;;;4976871;28;20178;-61
2023/10/24 05:12:37;;;;;;;0.40;0.40;;;12.40;99.90;;;;;;4974826;28;20188;-61
2023/10/24 05:15:03;;;;;;;0.40;0.40;;;12.40;99.90;;;;;;4976182;28;20190;-61
2023/10/24 05:17:30;;;;;;;0.30;0.30;;;12.40;99.90;;;;;;4975294;28;20420;-65
2023/10/24 05:19:59;;;;;;;0.30;0.30;;;12.40;99.90;;;;;;4976708;28;20964;-64
2023/10/24 05:22:24;;;;;;;0.30;0.30;;;12.50;99.90;;;;;;4975992;28;20428;-64
2023/10/24 05:24:50;;;;;;;0.63;0.60;;;12.50;99.90;;;;;;4975488;28;20427;-64
2023/10/24 05:27:16;;;;;;;0.60;0.53;;;12.50;99.90;;;;;;4975670;28;20282;-64
2023/10/24 05:29:42;;;;;;;0.30;0.30;;;12.50;99.90;;;;;;4976633;28;20414;-64
2023/10/24 05:32:08;;;;;;;0.30;0.27;;;12.50;99.90;;;;;;4975744;28;20178;-65
2023/10/24 05:34:34;;;;;;;0.30;0.30;;;12.50;99.90;;;;;;4972071;28;20521;-64
2023/10/24 05:36:59;;;;;;;0.30;0.20;;;12.40;99.90;;;;;;4975420;28;20253;-67
2023/10/24 05:39:26;;;;;;;0.30;0.20;;;12.40;99.90;;;;;;4976263;28;20178;-62
2023/10/24 05:41:53;;;;;;;0.30;0.20;;;12.40;99.90;;;;;;4974981;28;20279;-64
2023/10/24 05:44:18;;;;;;;0.40;0.40;;;12.40;99.90;;;;;;4975754;28;20437;-67
2023/10/24 05:46:44;;;;;;;0.30;0.20;;;12.40;99.90;;;;;;4975641;28;20454;-65
2023/10/24 05:49:10;;;;;;;0.30;0.20;;;12.40;99.90;;;;;;4976204;28;20172;-67
2023/10/24 05:51:36;;;;;;;0.30;0.30;;;12.40;99.90;;;;;;4976316;28;20471;-66
2023/10/24 05:54:02;;;;;;;0.30;0.30;;;12.30;99.90;;;;;;4975684;28;20265;-65
2023/10/24 05:56:27;;;;;;;0.30;0.30;;;12.30;99.90;;;;;;4974507;28;20249;-65
2023/10/24 05:58:54;;;;;;;0.30;0.30;;;12.30;99.90;;;;;;4976212;28;20178;-65
2023/10/24 06:01:20;;;;;;;0.30;0.30;;;12.40;99.90;;;;;;4975407;28;20612;-61
2023/10/24 06:03:46;;;;;;;0.40;0.40;;;12.50;99.90;;;;;;4975903;28;20404;-62
2023/10/24 06:06:12;;;;;;;0.50;0.50;;;12.50;99.90;;;;;;4975730;28;20517;-62
2023/10/24 06:08:39;;;;;;;0.30;0.20;;;12.50;99.90;;;;;;4975587;28;20439;-61
2023/10/24 06:11:05;;;;;;;0.30;0.30;;;12.50;99.90;;;;;;4974712;28;20222;-62
2023/10/24 06:13:31;;;;;;;0.30;0.30;;;12.50;99.90;;;;;;4975673;28;20457;-62
2023/10/24 06:16:09;;;;;;;0.30;0.20;;;12.50;99.90;;;;;;4975165;28;20976;-61
2023/10/24 06:18:35;;;;;;;0.30;0.20;;;12.50;99.90;;;;;;4975983;28;20774;-60
2023/10/24 06:21:04;;;;;;;0.30;0.30;;;12.50;99.90;;;;;;4975523;28;20469;-59
2023/10/24 06:23:30;;;;;;;0.30;0.20;;;12.50;99.90;;;;;;4975084;28;20182;-60
2023/10/24 06:25:56;;;;;;;0.30;0.30;;;12.50;99.90;;;;;;4975073;28;20438;-60
2023/10/24 06:28:22;;;;;;;0.30;0.27;;;12.50;99.90;;;;;;4975597;28;20265;-60
2023/10/24 06:30:50;;;;;;;0.30;0.20;;;12.50;99.90;;;;;;4975182;28;20618;-59
2023/10/24 06:33:15;;;;;;;0.40;0.40;;;12.60;99.90;;;;;;4974864;28;20187;-61
2023/10/24 06:35:41;;;;;;;0.37;0.37;;;12.50;99.90;;;;;;4974541;28;20784;-61
2023/10/24 06:38:06;;;;;;;0.93;0.93;;;12.50;99.90;;;;;;4975217;28;20253;-61
2023/10/24 06:40:32;;;;;;;0.30;0.20;;;12.50;99.90;;;;;;4975173;28;20206;-61
2023/10/24 06:42:58;;;;;;;0.50;0.50;;;12.40;99.90;;;;;;4975434;28;20199;-62
2023/10/24 06:45:24;;;;;;;0.30;0.30;;;12.50;99.90;;;;;;4974926;28;20226;-61
2023/10/24 06:47:49;;;;;;;0.30;0.30;;;12.50;99.90;;;;;;4975098;28;20439;-62
2023/10/24 06:50:15;;;;;;;0.30;0.20;;;12.50;99.90;;;;;;4974835;28;20234;-62
2023/10/24 06:52:42;;;;;;;0.30;0.30;;;12.50;99.90;;;;;;4974966;28;20657;-62
2023/10/24 06:55:08;;;;;;;0.50;0.50;;;12.60;99.90;;;;;;4974739;28;20197;-61
2023/10/24 06:57:34;;;;;;;0.30;0.30;;;12.60;99.90;;;;;;4975091;28;20536;-62
2023/10/24 06:59:59;;;;;;;0.30;0.20;;;12.60;99.90;;;;;;4974929;28;20896;-61
2023/10/24 07:02:25;;;;;;;0.30;0.30;;;12.60;99.90;;;;;;4960217;28;20543;-60
2023/10/24 07:04:52;;;;;;;0.30;0.30;;;12.60;99.90;;;;;;4953964;28;20291;-63
2023/10/24 07:07:19;;;;;;;0.30;0.30;;;12.60;99.90;;;;;;4955106;28;20509;-61
2023/10/24 07:09:44;;;;;;;0.30;0.20;;;12.60;99.90;;;;;;4955559;28;20263;-60
2023/10/24 07:12:10;;;;;;;0.30;0.27;;;12.60;99.90;;;;;;4955386;28;20407;-62
2023/10/24 07:14:35;;;;;;;0.30;0.20;;;12.60;99.90;;;;;;4955195;28;20183;-61
2023/10/24 07:17:01;;;;;;;0.30;0.20;;;12.60;99.90;;;;;;4970085;28;20198;-61
2023/10/24 07:19:26;;;;;;;1.43;0.87;;;12.60;99.90;;;;;;4973462;28;20202;-61
2023/10/24 07:21:52;;;;;;;0.60;0.60;;;12.60;99.90;;;;;;4974326;28;20247;-62
2023/10/24 07:24:17;;;;;;;0.30;0.30;;;12.60;99.90;;;;;;4974498;28;20218;-61
2023/10/24 07:26:43;;;;;;;0.30;0.30;;;12.60;99.90;;;;;;4974591;28;20257;-60
2023/10/24 07:29:09;;;;;;;0.30;0.20;;;12.60;99.90;;;;;;4974735;28;20266;-61
2023/10/24 07:31:34;;;;;;;0.30;0.30;;;12.60;99.90;;;;;;4974305;28;20186;-60
2023/10/24 07:34:00;;;;;;;0.30;0.30;;;12.60;99.90;;;;;;4974401;28;20262;-61
2023/10/24 07:36:30;;;;;;;0.30;0.30;;;12.60;99.90;;;;;;4973507;28;20218;-60
2023/10/24 07:38:57;;;;;;;0.40;0.40;;;12.60;99.90;;;;;;4974787;28;20426;-61
2023/10/24 07:41:22;;;;;;;0.30;0.30;;;12.60;99.90;;;;;;4974541;28;20466;-61
2023/10/24 07:43:48;;;;;;;0.50;0.37;;;12.50;99.90;;;;;;4974123;28;20824;-61
2023/10/24 07:46:13;;;;;;;0.30;0.30;;;12.50;99.90;;;;;;4973893;28;20199;-62
2023/10/24 07:48:39;;;;;;;0.30;0.30;;;12.50;99.90;;;;;;4974502;28;20210;-60
2023/10/24 07:51:04;;;;;;;0.30;0.20;;;12.50;99.90;;;;;;4974428;28;20207;-61
2023/10/24 07:53:30;;;;;;;0.30;0.20;;;12.50;99.90;;;;;;4974608;28;20231;-61
2023/10/24 07:55:56;;;;;;;0.40;0.40;;;12.50;99.90;;;;;;4972757;28;20810;-61
2023/10/24 07:58:21;;;;;;;0.60;0.60;;;12.50;99.90;;;;;;4974466;28;20187;-61
2023/10/24 08:00:48;;;;;;;0.30;0.30;;;12.60;99.90;;;;;;4974096;28;20577;-61
2023/10/24 08:03:14;;;;;;;0.30;0.30;;;12.60;99.90;;;;;;4974465;28;20200;-60
2023/10/24 08:05:41;;;;;;;0.30;0.20;;;12.60;99.90;;;;;;4973740;28;20440;-61
2023/10/24 08:08:07;;;;;;;0.30;0.30;;;12.70;99.90;;;;;;4974060;28;20801;-61
2023/10/24 08:10:33;;;;;;;0.50;0.50;;;12.70;99.90;;;;;;4974385;28;20429;-62
2023/10/24 08:12:59;;;;;;;0.30;0.30;;;12.70;99.90;;;;;;4973979;28;20968;-61
2023/10/24 08:15:25;;;;;;;0.30;0.30;;;12.70;99.90;;;;;;4973398;28;20413;-62
2023/10/24 08:17:51;;;;;;;1.27;1.17;;;12.70;99.90;;;;;;4973814;28;20457;-60
2023/10/24 08:20:17;;;;;;;0.30;0.30;;;12.70;99.90;;;;;;4973857;28;20489;-62
2023/10/24 08:22:43;;;;;;;0.30;0.30;;;12.70;99.90;;;;;;4974039;28;20405;-60
2023/10/24 08:25:09;;;;;;;0.30;0.20;;;12.70;99.90;;;;;;4973729;28;20386;-61
2023/10/24 08:27:35;;;;;;;0.30;0.30;;;12.70;99.90;;;;;;4973415;28;20999;-60
2023/10/24 08:30:01;;;;;;;0.30;0.27;;;12.70;99.90;;;;;;4973867;28;20190;-62
2023/10/24 08:32:27;;;;;;;0.30;0.20;;;12.80;99.90;;;;;;4974106;28;20201;-60
2023/10/24 08:34:52;;;;;;;0.30;0.27;;;12.80;99.90;;;;;;4973704;28;20894;-60
2023/10/24 08:37:18;;;;;;;0.30;0.30;;;12.80;99.90;;;;;;4974012;28;20608;-60
2023/10/24 08:39:43;;;;;;;0.30;0.20;;;12.80;99.90;;;;;;4973390;28;20190;-62
2023/10/24 08:42:14;;;;;;;0.30;0.27;;;12.80;99.90;;;;;;4973505;28;20175;-61
2023/10/24 08:44:41;;;;;;;0.30;0.30;;;12.70;99.90;;;;;;4973416;28;20193;-60
2023/10/24 08:47:08;;;;;;;0.30;0.30;;;12.70;99.90;;;;;;4975252;28;20426;-61
2023/10/24 08:49:38;;;;;;;0.30;0.30;;;12.70;99.90;;;;;;4977260;28;20410;-62
2023/10/24 08:52:05;;;;;;;0.30;0.20;;;12.80;99.90;;;;;;4977516;28;20418;-62
2023/10/24 08:54:31;;;;;;;0.50;0.50;;;12.70;99.90;;;;;;4976825;28;20522;-61
2023/10/24 08:57:02;;;;;;;0.60;0.60;;;12.80;99.90;;;;;;4977352;28;20864;-60
2023/10/24 08:59:39;;;;;;;0.30;0.30;;;12.80;99.90;;;;;;4977121;28;20410;-62
2023/10/24 09:02:08;;;;;;;0.30;0.30;;;12.80;99.90;;;;;;4977163;28;20470;-63
2023/10/24 09:04:35;;;;;;;0.30;0.30;;;12.70;99.90;;;;;;4976706;28;20409;-64
2023/10/24 09:07:01;;;;;;;0.50;0.50;;;12.60;99.90;;;;;;4976933;28;20445;-63
2023/10/24 09:09:26;;;;;;;0.30;0.20;;;12.50;99.90;;;;;;4976709;28;20416;-63
2023/10/24 09:11:57;;;;;;;0.40;0.40;;;12.50;99.90;;;;;;4977016;28;20183;-61
2023/10/24 09:14:24;;;;;;;0.67;0.67;;;12.40;99.90;;;;;;4975355;28;20249;-63
2023/10/24 09:17:00;;;;;;;1.07;0.60;;;12.40;99.90;;;;;;4976227;28;20447;-64
2023/10/24 09:19:27;;;;;;;0.30;0.30;;;12.30;99.90;;;;;;4975793;28;20993;-64
2023/10/24 09:21:53;;;;;;;0.30;0.23;;;12.30;99.90;;;;;;4976690;28;20533;-63
2023/10/24 09:24:19;;;;;;;0.30;0.30;;;12.30;99.90;;;;;;4976488;28;20490;-61
2023/10/24 09:26:55;;;;;;;0.30;0.30;;;12.30;99.90;;;;;;4976631;28;20452;-62
2023/10/24 09:29:24;;;;;;;0.30;0.20;;;12.30;99.90;;;;;;4976789;28;20414;-63
2023/10/24 09:31:51;;;;;;;0.30;0.20;;;12.30;99.90;;;;;;4976426;28;20529;-65
2023/10/24 09:34:17;;;;;;;0.30;0.30;;;12.40;99.90;;;;;;4976400;28;20781;-63
2023/10/24 09:36:46;;;;;;;0.30;0.30;;;12.40;99.90;;;;;;4976447;28;20445;-62
2023/10/24 09:39:13;;;;;;;0.30;0.30;;;12.40;99.90;;;;;;4976367;28;20437;-64
2023/10/24 09:41:43;;;;;;;0.30;0.30;;;12.40;99.90;;;;;;4979181;28;20466;-63
2023/10/24 09:44:09;;;;;;;0.37;0.37;;;12.40;99.90;;;;;;4977806;28;20502;-63
2023/10/24 09:46:36;;;;;;;1.77;1.30;;;12.40;99.90;;;;;;4976768;28;20909;-63
2023/10/24 09:49:06;;;;;;;0.30;0.20;;;12.40;99.90;;;;;;4976562;28;20505;-64
2023/10/24 09:51:35;;;;;;;0.57;0.57;;;12.40;99.90;;;;;;4975953;28;20553;-62
2023/10/24 09:54:04;;;;;;;0.30;0.30;;;12.40;99.90;;;;;;4975416;28;20434;-63
2023/10/24 09:56:30;;;;;;;0.30;0.20;;;12.40;99.90;;;;;;4975938;28;20545;-63
2023/10/24 09:58:56;;;;;;;0.60;0.60;;;12.50;99.90;;;;;;4975430;28;20449;-63
2023/10/24 10:01:22;;;;;;;0.30;0.20;;;12.50;99.90;;;;;;4975883;28;20469;-63
2023/10/24 10:03:55;;;;;;;0.30;0.30;;;12.50;99.90;;;;;;4975642;28;20223;-63
2023/10/24 10:06:21;;;;;;;0.40;0.40;;;12.50;99.90;;;;;;4975523;28;20454;-62
2023/10/24 10:08:49;;;;;;;0.30;0.30;;;12.50;99.90;;;;;;4975381;28;20421;-64
2023/10/24 10:11:16;;;;;;;0.30;0.30;;;12.60;99.90;;;;;;4975500;28;20425;-63
2023/10/24 10:13:52;;;;;;;0.30;0.20;;;12.60;99.90;;;;;;4975870;28;20467;-62
2023/10/24 10:16:59;;;;;;;0.30;0.20;;;12.70;99.90;;;;;;4975557;28;20958;-63
2023/10/24 10:19:33;;;;;;;0.47;0.47;;;12.70;99.90;;;;;;4935055;29;20424;-64
2023/10/24 10:22:34;;;;;;;0.30;0.20;;;12.80;99.90;;;;;;4971201;28;20590;-62
2023/10/24 10:25:27;;;;;;;0.30;0.20;;;12.80;99.90;;;;;;4975360;28;20468;-64
2023/10/24 10:28:33;;;;;;;0.30;0.30;;;12.80;99.90;;;;;;4975660;28;20427;-63
2023/10/24 10:31:06;;;;;;;3.23;1.03;;;12.80;99.90;;;;;;4896142;29;20414;-63
2023/10/24 10:33:32;;;;;;;0.40;0.40;;;12.80;99.90;;;;;;4961780;28;20509;-63
2023/10/24 10:36:05;;;;;;;0.30;0.30;;;12.80;99.90;;;;;;4974635;28;20485;-63
2023/10/24 10:38:48;;;;;;;0.30;0.30;;;12.80;99.90;;;;;;4975354;28;20574;-61
2023/10/24 10:41:26;;;;;;;0.30;0.30;;;12.80;99.90;;;;;;4975168;28;20816;-64
2023/10/24 10:44:00;;;;;;;0.30;0.20;;;12.80;99.90;;;;;;4974661;28;20772;-62
2023/10/24 10:46:27;;;;;;;0.30;0.30;;;12.80;99.90;;;;;;4975158;28;20777;-64
2023/10/24 10:49:06;;;;;;;0.30;0.30;;;12.80;99.90;;;;;;4975300;28;20403;-61
2023/10/24 10:51:33;;;;;;;0.30;0.30;;;12.80;99.90;;;;;;4974679;28;20485;-63
2023/10/24 10:54:11;;;;;;;0.30;0.30;;;12.80;99.90;;;;;;4974709;28;20406;-63
2023/10/24 10:56:39;;;;;;;0.30;0.30;;;12.80;99.90;;;;;;4975227;28;20437;-61
2023/10/24 10:59:08;;;;;;;0.53;0.53;;;12.80;99.90;;;;;;4974788;28;20470;-62
2023/10/24 11:01:58;;;;;;;0.40;0.40;;;12.80;99.90;;;;;;4975231;28;20557;-60
2023/10/24 11:04:24;;;;;;;0.50;0.50;;;12.80;99.90;;;;;;4974673;28;20501;-65
2023/10/24 11:06:54;;;;;;;0.40;0.40;;;12.90;99.90;;;;;;4974864;28;20526;-64
2023/10/24 11:09:22;;;;;;;0.50;0.50;;;12.90;99.90;;;;;;4974672;28;20245;-63
2023/10/24 11:12:27;;;;;;;0.30;0.30;;;12.90;99.90;;;;;;4974807;28;20905;-62
2023/10/24 11:15:13;;;;;;;0.30;0.30;;;12.90;99.90;;;;;;4974323;28;20416;-62
2023/10/24 11:17:39;;;;;;;0.40;0.40;;;13.00;99.90;;;;;;4974541;28;20442;-64
2023/10/24 11:20:06;;;;;;;0.40;0.40;;;13.00;99.90;;;;;;4974431;28;20912;-62
2023/10/24 11:22:32;;;;;;;0.50;0.50;;;13.00;99.90;;;;;;4974500;28;20807;-65
2023/10/24 11:24:58;;;;;;;0.40;0.40;;;13.00;99.90;;;;;;4974420;28;20410;-62
2023/10/24 11:27:24;;;;;;;0.30;0.30;;;13.10;99.90;;;;;;4974576;28;20841;-64
2023/10/24 11:29:52;;;;;;;0.50;0.50;;;13.10;99.90;;;;;;4974450;28;20442;-62
2023/10/24 11:32:19;;;;;;;0.40;0.40;;;13.10;99.90;;;;;;4974524;28;20186;-61
2023/10/24 11:34:46;;;;;;;0.30;0.30;;;13.10;99.90;;;;;;4974224;28;20403;-63
2023/10/24 11:37:11;;;;;;;0.40;0.40;;;13.10;99.90;;;;;;4974100;28;20958;-62
2023/10/24 11:39:41;;;;;;;0.30;0.20;;;13.10;99.90;;;;;;4974556;28;20412;-63
2023/10/24 11:42:07;;;;;;;0.30;0.30;;;13.20;99.90;;;;;;4974266;28;20517;-63
2023/10/24 11:44:32;;;;;;;0.60;0.50;;;13.10;99.90;;;;;;4974108;28;20407;-62
2023/10/24 11:46:58;;;;;;;0.57;0.57;;;13.20;99.90;;;;;;4974304;28;20234;-63
2023/10/24 11:49:36;;;;;;;0.30;0.20;;;13.30;99.90;;;;;;4973086;28;20300;-65
2023/10/24 11:52:02;;;;;;;0.30;0.30;;;13.30;99.90;;;;;;4974190;28;20184;-62
2023/10/24 11:54:28;;;;;;;0.30;0.30;;;13.30;99.90;;;;;;4973942;28;20910;-65
2023/10/24 11:56:54;;;;;;;0.30;0.20;;;13.30;99.90;;;;;;4974154;28;20945;-63
2023/10/24 11:59:20;;;;;;;0.40;0.40;;;13.30;99.90;;;;;;4974320;28;20399;-64
2023/10/24 12:01:46;;;;;;;0.30;0.30;;;13.30;99.90;;;;;;4974354;28;20436;-64
2023/10/24 12:04:12;;;;;;;0.50;0.50;;;13.30;99.90;;;;;;4972894;28;20207;-65
2023/10/24 12:06:39;;;;;;;0.60;0.60;;;13.30;99.90;;;;;;4973950;28;20532;-61
2023/10/24 12:09:06;;;;;;;0.30;0.20;;;13.30;99.90;;;;;;4974370;28;20421;-64
2023/10/24 12:11:35;;;;;;;0.90;0.77;;;13.30;99.90;;;;;;4974381;28;20430;-64
2023/10/24 12:14:01;;;;;;;0.30;0.20;;;13.40;99.90;;;;;;4973876;28;20423;-60
2023/10/24 12:16:31;;;;;;;0.30;0.27;;;13.40;99.90;;;;;;4974079;28;20457;-62
2023/10/24 12:18:59;;;;;;;0.30;0.30;;;13.40;99.90;;;;;;4974176;28;20386;-61
2023/10/24 12:21:25;;;;;;;0.50;0.50;;;13.50;99.90;;;;;;4974476;28;20571;-61
2023/10/24 12:23:50;;;;;;;0.30;0.20;;;13.50;99.90;;;;;;4977514;28;20492;-62
2023/10/24 12:26:16;;;;;;;0.30;0.30;;;13.50;99.90;;;;;;4977666;28;20207;-62
2023/10/24 12:28:45;;;;;;;0.30;0.27;;;13.50;99.90;;;;;;4977937;28;20183;-62
2023/10/24 12:31:11;;;;;;;0.30;0.20;;;13.50;99.90;;;;;;4977480;28;20176;-64
2023/10/24 12:33:38;;;;;;;0.30;0.20;;;13.50;99.90;;;;;;4977831;28;20442;-64
2023/10/24 12:36:06;;;;;;;0.40;0.40;;;13.40;99.90;;;;;;4977287;28;20413;-64
2023/10/24 12:38:32;;;;;;;0.30;0.20;;;13.50;99.90;;;;;;4977486;28;20424;-61
2023/10/24 12:40:58;;;;;;;0.73;0.73;;;13.50;99.90;;;;;;4977418;28;20474;-61
2023/10/24 12:43:24;;;;;;;0.40;0.40;;;13.50;99.90;;;;;;4977528;28;20374;-63
2023/10/24 12:45:51;;;;;;;0.30;0.30;;;13.60;99.90;;;;;;4976757;28;20674;-62
2023/10/24 12:48:17;;;;;;;0.43;0.43;;;13.60;99.90;;;;;;4977508;28;20198;-60
2023/10/24 12:50:42;;;;;;;0.50;0.50;;;13.60;99.90;;;;;;4977511;28;20448;-62
2023/10/24 12:53:08;;;;;;;0.30;0.20;;;13.60;99.90;;;;;;4977433;28;20418;-62
2023/10/24 12:55:34;;;;;;;0.63;0.63;;;13.60;99.90;;;;;;4977178;28;20191;-62
2023/10/24 12:57:59;;;;;;;0.30;0.30;;;13.60;99.90;;;;;;4977435;28;20283;-63
2023/10/24 13:00:28;;;;;;;0.30;0.30;;;13.70;99.90;;;;;;4975090;28;20540;-62
2023/10/24 13:02:56;;;;;;;0.30;0.30;;;13.70;99.90;;;;;;4975302;28;20186;-62
2023/10/24 13:05:22;;;;;;;0.30;0.30;;;13.70;99.90;;;;;;4974804;28;20446;-63
2023/10/24 13:07:47;;;;;;;2.20;1.70;;;13.70;99.90;;;;;;4975671;28;20820;-63
2023/10/24 13:10:15;;;;;;;0.30;0.30;;;13.80;99.90;;;;;;4976920;28;20627;-61
2023/10/24 13:12:41;;;;;;;0.37;0.37;;;13.80;99.90;;;;;;4977176;28;20207;-64
2023/10/24 13:15:07;;;;;;;0.53;0.53;;;13.80;99.90;;;;;;4976266;28;20892;-60
2023/10/24 13:17:33;;;;;;;0.30;0.20;;;13.80;99.90;;;;;;4976819;28;20250;-60
2023/10/24 13:19:58;;;;;;;0.30;0.20;;;13.80;99.90;;;;;;4976755;28;20917;-64
2023/10/24 13:22:24;;;;;;;0.30;0.27;;;13.80;99.90;;;;;;4975150;28;20517;-62
2023/10/24 13:24:50;;;;;;;0.30;0.30;;;13.70;99.90;;;;;;4976637;28;20322;-61
2023/10/24 13:27:16;;;;;;;0.30;0.20;;;13.70;99.90;;;;;;4976830;28;20483;-63
2023/10/24 13:29:41;;;;;;;0.30;0.20;;;13.70;99.90;;;;;;4976607;28;20645;-61
2023/10/24 13:32:07;;;;;;;0.60;0.60;;;13.60;99.90;;;;;;4976074;28;20537;-64
2023/10/24 13:34:32;;;;;;;0.30;0.20;;;13.60;99.90;;;;;;4975020;28;20179;-65
2023/10/24 13:36:58;;;;;;;0.30;0.30;;;13.60;99.90;;;;;;4976789;28;20226;-64
2023/10/24 13:39:24;;;;;;;0.30;0.30;;;13.60;99.90;;;;;;4976317;28;20187;-62
2023/10/24 13:41:49;;;;;;;0.70;0.70;;;13.50;99.90;;;;;;4976761;28;20222;-63
2023/10/24 13:44:16;;;;;;;0.30;0.30;;;13.60;99.90;;;;;;4976498;28;20184;-61
2023/10/24 13:46:41;;;;;;;0.30;0.30;;;13.50;99.90;;;;;;4976440;28;20198;-64
2023/10/24 13:49:07;;;;;;;0.30;0.30;;;13.50;99.90;;;;;;4976492;28;20464;-63
2023/10/24 13:51:33;;;;;;;0.30;0.27;;;13.50;99.90;;;;;;4976651;28;20179;-62
2023/10/24 13:54:04;;;;;;;0.30;0.20;;;13.50;99.90;;;;;;4976297;28;20565;-65
2023/10/24 13:56:30;;;;;;;0.30;0.20;;;13.50;99.90;;;;;;4975790;28;20433;-62
2023/10/24 13:58:56;;;;;;;0.40;0.40;;;13.50;99.90;;;;;;4976368;28;20507;-63
2023/10/24 14:01:22;;;;;;;0.30;0.30;;;13.60;99.90;;;;;;4976046;28;20457;-63
2023/10/24 14:03:47;;;;;;;0.30;0.30;;;13.60;99.90;;;;;;4975242;28;20214;-63
2023/10/24 14:06:13;;;;;;;0.30;0.30;;;13.60;99.90;;;;;;4976158;28;20192;-63
2023/10/24 14:08:39;;;;;;;0.30;0.20;;;13.60;99.90;;;;;;4975723;28;20672;-61
2023/10/24 14:11:04;;;;;;;0.27;0.20;;;13.60;99.90;;;;;;4975484;28;20282;-61
2023/10/24 14:13:30;;;;;;;0.30;0.20;;;13.70;99.90;;;;;;4975740;28;20176;-63
2023/10/24 14:15:56;;;;;;;0.30;0.30;;;13.70;99.90;;;;;;4975310;28;20654;-63
2023/10/24 14:18:21;;;;;;;0.30;0.30;;;13.70;99.90;;;;;;4975416;28;20211;-63
2023/10/24 14:20:47;;;;;;;0.43;0.43;;;13.80;99.90;;;;;;4975796;28;20219;-62
2023/10/24 14:23:13;;;;;;;0.20;0.20;;;13.90;99.90;;;;;;4975642;28;20221;-66
2023/10/24 14:25:42;;;;;;;0.30;0.30;;;13.90;99.90;;;;;;4975453;28;20246;-67
2023/10/24 14:28:08;;;;;;;0.30;0.30;;;13.90;99.90;;;;;;4975770;28;20410;-66
2023/10/24 14:30:34;;;;;;;0.30;0.30;;;13.90;99.90;;;;;;4975651;28;20422;-66
2023/10/24 14:32:59;;;;;;;0.20;0.20;;;13.90;99.90;;;;;;4975130;28;20489;-64
2023/10/24 14:35:25;;;;;;;0.30;0.20;;;13.90;99.90;;;;;;4975186;28;20550;-65
2023/10/24 14:37:51;;;;;;;0.30;0.30;;;14.00;99.90;;;;;;4974888;28;20200;-62
2023/10/24 14:40:16;;;;;;;0.30;0.30;;;13.90;99.90;;;;;;4975228;28;20208;-61
2023/10/24 14:42:42;;;;;;;0.40;0.40;;;13.90;99.90;;;;;;4975385;28;20172;-68
2023/10/24 14:45:08;;;;;;;0.30;0.30;;;13.90;99.90;;;;;;4974721;28;20178;-65
2023/10/24 14:47:34;;;;;;;0.30;0.20;;;13.90;99.90;;;;;;4975097;28;20188;-64
2023/10/24 14:50:00;;;;;;;0.30;0.30;;;13.90;99.90;;;;;;4975197;28;20382;-62
2023/10/24 14:52:27;;;;;;;0.30;0.20;;;13.90;99.90;;;;;;4975061;28;20392;-60
2023/10/24 14:54:54;;;;;;;0.30;0.30;;;13.80;99.90;;;;;;4973303;28;20176;-64
2023/10/24 14:57:20;;;;;;;0.30;0.30;;;13.80;99.90;;;;;;4975104;28;20433;-66
2023/10/24 14:59:46;;;;;;;0.30;0.30;;;13.80;99.90;;;;;;4975341;28;20421;-68
2023/10/24 15:02:11;;;;;;;0.30;0.30;;;13.80;99.90;;;;;;4975165;28;21031;-60
2023/10/24 15:04:37;;;;;;;0.30;0.30;;;13.80;99.90;;;;;;4974409;28;20516;-62
2023/10/24 15:07:02;;;;;;;0.60;0.60;;;13.70;99.90;;;;;;4974882;28;20203;-62
2023/10/24 15:09:28;;;;;;;0.30;0.30;;;13.70;99.90;;;;;;4974461;28;20544;-61
2023/10/24 15:11:55;;;;;;;0.63;0.57;;;13.70;99.90;;;;;;4974979;28;20534;-63
2023/10/24 15:14:22;;;;;;;0.30;0.30;;;13.70;99.90;;;;;;4974478;28;20179;-62
2023/10/24 15:16:47;;;;;;;0.30;0.30;;;13.70;99.90;;;;;;4974427;28;20406;-62
2023/10/24 15:19:13;;;;;;;0.30;0.30;;;13.70;99.90;;;;;;4974454;28;20766;-63
2023/10/24 15:21:38;;;;;;;0.30;0.30;;;13.60;99.90;;;;;;4974527;28;20214;-61
2023/10/24 15:24:06;;;;;;;0.30;0.20;;;13.70;99.90;;;;;;4974293;28;20655;-61
2023/10/24 15:26:32;;;;;;;0.30;0.20;;;13.70;99.90;;;;;;4974531;28;20708;-63
2023/10/24 15:28:57;;;;;;;0.30;0.20;;;13.60;99.90;;;;;;4974497;28;20427;-61
2023/10/24 15:31:23;;;;;;;0.40;0.40;;;13.60;99.90;;;;;;4974545;28;20427;-65
2023/10/24 15:33:49;;;;;;;0.30;0.30;;;13.60;99.90;;;;;;4974226;28;20185;-63
2023/10/24 15:36:15;;;;;;;0.30;0.30;;;13.50;99.90;;;;;;4974541;28;20199;-61
2023/10/24 15:38:41;;;;;;;0.30;0.30;;;13.50;99.90;;;;;;4974158;28;20262;-62
2023/10/24 15:41:07;;;;;;;0.30;0.30;;;13.50;99.90;;;;;;4974347;28;20550;-59
2023/10/24 15:43:32;;;;;;;0.30;0.30;;;13.50;99.90;;;;;;4974466;28;20435;-60
2023/10/24 15:46:21;;;;;;;0.37;0.37;;;13.50;99.90;;;;;;4973776;28;20570;-60
2023/10/24 15:48:48;;;;;;;0.30;0.30;;;13.50;99.90;;;;;;4972703;28;20172;-62
2023/10/24 15:51:14;;;;;;;0.27;0.20;;;13.50;99.90;;;;;;4974237;28;20794;-61
2023/10/24 15:53:41;;;;;;;0.20;0.20;;;13.50;99.90;;;;;;4973949;28;20402;-62
2023/10/24 15:56:07;;;;;;;0.23;0.20;;;13.50;99.90;;;;;;4974146;28;20496;-65
2023/10/24 15:58:33;;;;;;;0.40;0.40;;;13.50;99.90;;;;;;4977979;28;20427;-63
2023/10/24 16:01:09;;;;;;;0.30;0.30;;;13.40;99.90;;;;;;4977806;28;20486;-65
2023/10/24 16:03:35;;;;;;;0.30;0.30;;;13.40;99.90;;;;;;4977969;28;20410;-64
2023/10/24 16:06:01;;;;;;;0.27;0.27;;;13.40;99.90;;;;;;4977712;28;20451;-62
2023/10/24 16:08:26;;;;;;;0.30;0.23;;;13.40;99.90;;;;;;4977531;28;20231;-61
2023/10/24 16:10:52;;;;;;;0.20;0.20;;;13.30;99.90;;;;;;4978029;28;20660;-61
2023/10/24 16:13:17;;;;;;;0.30;0.30;;;13.30;99.90;;;;;;4977723;28;20233;-61
2023/10/24 16:15:45;;;;;;;0.27;0.27;;;13.30;99.90;;;;;;4977361;28;20187;-63
2023/10/24 16:18:11;;;;;;;0.47;0.40;;;13.30;99.90;;;;;;4977730;28;20192;-64
2023/10/24 16:20:37;;;;;;;0.30;0.30;;;13.30;99.90;;;;;;4977271;28;20458;-63
2023/10/24 16:23:02;;;;;;;0.30;0.30;;;13.30;99.90;;;;;;4977734;28;20259;-64
2023/10/24 16:25:28;;;;;;;0.30;0.30;;;13.30;99.90;;;;;;4976037;28;20179;-65
2023/10/24 16:27:55;;;;;;;0.30;0.30;;;13.20;99.90;;;;;;4977261;28;20434;-62
2023/10/24 16:30:20;;;;;;;0.30;0.30;;;13.20;99.90;;;;;;4977569;28;20263;-66
2023/10/24 16:32:46;;;;;;;0.30;0.30;;;13.20;99.90;;;;;;4977254;28;20446;-65
2023/10/24 16:35:11;;;;;;;0.30;0.30;;;13.20;99.90;;;;;;4977371;28;20238;-63
2023/10/24 16:37:37;;;;;;;0.30;0.30;;;13.10;99.90;;;;;;4977303;28;20298;-65
2023/10/24 16:40:03;;;;;;;0.30;0.30;;;13.10;99.90;;;;;;4977562;28;20183;-67
2023/10/24 16:42:28;;;;;;;0.30;0.30;;;13.10;99.90;;;;;;4977381;28;20190;-65
2023/10/24 16:44:54;;;;;;;0.30;0.30;;;13.10;99.90;;;;;;4977170;28;20829;-64
2023/10/24 16:47:20;;;;;;;0.30;0.20;;;13.10;99.90;;;;;;4977146;28;20202;-62
2023/10/24 16:49:48;;;;;;;0.40;0.40;;;13.10;99.90;;;;;;4977651;28;20180;-64
2023/10/24 16:52:14;;;;;;;0.30;0.30;;;13.10;99.90;;;;;;4977172;28;20657;-64
2023/10/24 16:54:40;;;;;;;0.30;0.30;;;13.00;99.90;;;;;;4976872;28;20426;-64